Time;durP1;ratioP1;P1;durP2;ratioP2;P2;SDS_P1;SDS_P2;PMS_P1;PMS_P2;Temp;Humidity;BMP_temperature;BMP_pressure;BME280_temperature;BME280_humidity;BME280_pressure;Samples;Min_cycle;Max_cycle;Signal;HPM_P1;HPM_P2
2022/08/09 00:03:03;;;;;;;8.80;3.90;;;15.10;99.90;;;;;;4944735;28;20101;-87
2022/08/09 00:05:35;;;;;;;9.25;4.20;;;15.00;99.90;;;;;;4888809;29;20130;-87
2022/08/09 00:08:01;;;;;;;8.57;4.40;;;15.00;99.90;;;;;;4930562;28;20071;-88
2022/08/09 00:10:32;;;;;;;9.45;4.35;;;14.90;99.90;;;;;;4965803;28;20070;-87
2022/08/09 00:12:58;;;;;;;9.23;4.13;;;14.90;99.90;;;;;;4956405;28;20043;-87
2022/08/09 00:15:24;;;;;;;9.15;4.43;;;15.00;99.90;;;;;;4950133;28;20058;-87
2022/08/09 00:17:57;;;;;;;9.10;4.60;;;12.90;99.90;;;;;;4950381;28;20077;-87
2022/08/09 00:20:23;;;;;;;8.20;3.90;;;15.00;99.90;;;;;;4935219;28;20121;-87
2022/08/09 00:22:49;;;;;;;8.60;4.07;;;14.90;99.90;;;;;;4950741;28;20130;-87
2022/08/09 00:25:18;;;;;;;8.82;4.05;;;14.90;99.90;;;;;;4951795;28;20039;-87
2022/08/09 00:27:44;;;;;;;10.98;4.63;;;14.80;99.90;;;;;;4950794;28;20039;-87
2022/08/09 00:30:10;;;;;;;9.00;4.90;;;14.80;99.90;;;;;;4942473;28;20043;-87
2022/08/09 00:32:36;;;;;;;9.10;4.38;;;15.10;99.90;;;;;;4947286;28;20105;-87
2022/08/09 00:35:02;;;;;;;9.38;4.60;;;14.80;99.90;;;;;;4915402;29;20079;-87
2022/08/09 00:37:27;;;;;;;8.77;4.38;;;14.80;99.90;;;;;;4916689;28;20059;-88
2022/08/09 00:39:53;;;;;;;8.85;4.60;;;14.80;99.90;;;;;;4919482;29;20477;-87
2022/08/09 00:42:19;;;;;;;10.52;4.63;;;14.80;99.90;;;;;;4928745;29;20434;-87
2022/08/09 00:44:44;;;;;;;9.38;4.45;;;14.80;99.90;;;;;;4931773;29;20378;-87
2022/08/09 00:47:10;;;;;;;8.93;4.55;;;14.80;99.90;;;;;;4915979;28;20050;-87
2022/08/09 00:49:36;;;;;;;9.65;4.50;;;14.80;99.90;;;;;;4917313;29;20043;-87
2022/08/09 00:52:03;;;;;;;8.98;4.57;;;14.80;99.90;;;;;;4946469;29;20531;-87
2022/08/09 00:54:31;;;;;;;9.65;4.50;;;14.80;99.90;;;;;;4933378;29;20130;-88
2022/08/09 00:56:56;;;;;;;9.32;4.55;;;14.80;99.90;;;;;;4931302;28;20469;-87
2022/08/09 00:59:22;;;;;;;9.25;4.70;;;14.80;99.90;;;;;;4916528;29;20074;-87
2022/08/09 01:01:50;;;;;;;8.40;4.15;;;14.70;99.90;;;;;;4947530;28;20126;-87
2022/08/09 01:04:16;;;;;;;8.10;3.85;;;14.70;99.90;;;;;;4931866;29;20045;-87
2022/08/09 01:06:49;;;;;;;8.40;4.13;;;14.70;99.90;;;;;;4932836;29;20047;-87
2022/08/09 01:09:33;;;;;;;8.10;4.22;;;14.70;99.90;;;;;;4947141;28;20047;-87
2022/08/09 01:12:18;;;;;;;9.75;4.40;;;14.70;99.90;;;;;;4950205;28;20054;-85
2022/08/09 01:14:51;;;;;;;8.70;4.28;;;14.70;99.90;;;;;;4955764;28;20086;-86
2022/08/09 01:17:47;;;;;;;9.35;4.05;;;14.60;99.90;;;;;;4975675;28;20043;-85
2022/08/09 01:20:25;;;;;;;8.63;4.38;;;14.50;99.90;;;;;;4930046;29;20452;-87
2022/08/09 01:23:16;;;;;;;9.07;4.15;;;14.50;99.90;;;;;;4945172;29;20070;-88
2022/08/09 01:25:50;;;;;;;9.98;3.85;;;14.50;99.90;;;;;;4931493;29;20315;-87
2022/08/09 01:28:17;;;;;;;9.30;3.90;;;14.50;99.90;;;;;;4945416;28;20046;-88
2022/08/09 01:30:44;;;;;;;8.95;4.40;;;14.50;99.90;;;;;;4927221;29;20508;-88
2022/08/09 01:33:11;;;;;;;10.48;4.15;;;14.50;99.90;;;;;;4914857;29;20055;-87
2022/08/09 01:35:56;;;;;;;9.95;4.57;;;14.40;99.90;;;;;;4917016;29;20048;-87
2022/08/09 01:38:26;;;;;;;8.82;4.18;;;14.50;99.90;;;;;;4930651;29;20039;-87
2022/08/09 01:41:01;;;;;;;8.55;3.88;;;14.40;99.90;;;;;;4948811;29;20043;-87
2022/08/09 01:43:29;;;;;;;9.52;4.22;;;14.40;99.90;;;;;;4947508;29;20047;-88
2022/08/09 01:45:55;;;;;;;7.95;3.63;;;14.40;99.90;;;;;;4932316;29;20047;-87
2022/08/09 01:48:22;;;;;;;8.60;3.88;;;15.30;99.90;;;;;;4932163;29;20138;-88
2022/08/09 01:50:51;;;;;;;7.70;3.60;;;14.40;99.90;;;;;;4919315;29;20054;-88
2022/08/09 01:53:19;;;;;;;7.93;3.47;;;14.40;99.90;;;;;;4936586;28;20066;-88
2022/08/09 01:55:46;;;;;;;7.85;3.53;;;14.40;99.90;;;;;;4950976;29;20035;-86
2022/08/09 01:58:14;;;;;;;8.90;4.10;;;14.40;99.90;;;;;;4949989;28;20050;-86
2022/08/09 02:00:42;;;;;;;8.98;3.83;;;14.40;99.90;;;;;;4941142;29;20101;-87
2022/08/09 02:03:09;;;;;;;7.93;3.83;;;14.30;99.90;;;;;;4951894;29;20039;-87
2022/08/09 02:05:36;;;;;;;8.85;3.67;;;14.30;99.90;;;;;;4917049;29;20075;-87
2022/08/09 02:08:07;;;;;;;8.57;3.50;;;14.30;99.90;;;;;;4924639;28;20062;-86
2022/08/09 02:10:36;;;;;;;8.27;3.50;;;14.30;99.90;;;;;;4964518;29;20043;-87
2022/08/09 02:13:05;;;;;;;7.90;3.45;;;14.30;99.90;;;;;;4930648;29;20085;-87
2022/08/09 02:15:35;;;;;;;8.32;3.95;;;14.20;99.90;;;;;;4963294;28;20419;-87
2022/08/09 02:18:02;;;;;;;8.18;3.90;;;14.20;99.90;;;;;;4946346;28;20102;-87
2022/08/09 02:20:31;;;;;;;9.00;3.80;;;14.20;99.90;;;;;;4932102;28;20043;-87
2022/08/09 02:23:17;;;;;;;7.53;3.50;;;14.20;99.90;;;;;;4931262;29;20117;-87
2022/08/09 02:25:46;;;;;;;7.85;3.63;;;14.10;99.90;;;;;;4945435;28;20535;-87
2022/08/09 02:28:43;;;;;;;7.57;3.45;;;14.10;99.90;;;;;;4947718;28;20050;-87
2022/08/09 02:31:24;;;;;;;8.43;3.70;;;14.10;99.90;;;;;;4939078;28;20051;-87
2022/08/09 02:33:53;;;;;;;8.93;3.50;;;14.00;99.90;;;;;;4929296;29;20082;-87
2022/08/09 02:36:26;;;;;;;8.23;3.65;;;14.00;99.90;;;;;;4944954;28;20079;-87
2022/08/09 02:38:57;;;;;;;7.72;3.42;;;14.00;99.90;;;;;;4947881;29;20497;-87
2022/08/09 02:41:48;;;;;;;7.85;3.65;;;14.00;99.90;;;;;;4945274;29;20094;-87
2022/08/09 02:44:24;;;;;;;8.95;3.95;;;14.00;99.90;;;;;;4927993;29;20043;-87
2022/08/09 02:46:52;;;;;;;8.30;3.78;;;14.00;99.90;;;;;;4929279;29;20042;-87
2022/08/09 02:49:19;;;;;;;10.57;4.25;;;13.90;99.90;;;;;;4928186;29;20074;-87
2022/08/09 02:51:52;;;;;;;7.88;3.70;;;13.90;99.90;;;;;;4945801;29;20043;-87
2022/08/09 02:54:20;;;;;;;8.27;4.00;;;13.90;99.90;;;;;;4946825;28;20050;-87
2022/08/09 02:56:48;;;;;;;8.05;3.72;;;13.80;99.90;;;;;;4931566;29;20035;-87
2022/08/09 02:59:15;;;;;;;8.02;3.78;;;13.80;99.90;;;;;;4930095;29;20047;-87
2022/08/09 03:01:42;;;;;;;8.02;3.83;;;13.80;99.90;;;;;;4928790;28;20046;-87
2022/08/09 03:04:10;;;;;;;8.70;3.88;;;13.80;99.90;;;;;;4929918;29;20040;-87
2022/08/09 03:06:36;;;;;;;7.85;3.58;;;13.70;99.90;;;;;;4929471;28;20059;-88
2022/08/09 03:09:04;;;;;;;8.55;4.10;;;13.70;99.90;;;;;;4930393;29;20059;-87
2022/08/09 03:11:31;;;;;;;8.38;3.85;;;13.70;99.90;;;;;;4947469;28;20043;-87
2022/08/09 03:13:57;;;;;;;8.18;3.85;;;13.60;99.90;;;;;;4932382;29;20173;-87
2022/08/09 03:16:23;;;;;;;8.55;3.60;;;13.60;99.90;;;;;;4933799;29;20172;-87
2022/08/09 03:18:50;;;;;;;8.35;3.20;;;13.50;99.90;;;;;;4929589;29;20121;-88
2022/08/09 03:21:18;;;;;;;9.25;3.42;;;13.50;99.90;;;;;;4916915;28;20035;-87
2022/08/09 03:23:47;;;;;;;7.88;3.13;;;13.50;99.90;;;;;;4951392;29;20125;-87
2022/08/09 03:26:18;;;;;;;6.82;2.67;;;13.50;99.90;;;;;;4933549;29;20102;-87
2022/08/09 03:28:46;;;;;;;7.22;2.85;;;13.50;99.90;;;;;;4933939;29;20043;-87
2022/08/09 03:31:12;;;;;;;7.05;3.00;;;13.50;99.90;;;;;;4949278;28;20071;-87
2022/08/09 03:33:39;;;;;;;9.20;3.20;;;13.40;99.90;;;;;;4946973;28;20059;-87
2022/08/09 03:36:06;;;;;;;7.60;3.40;;;13.40;99.90;;;;;;4932102;28;20093;-87
2022/08/09 03:38:33;;;;;;;7.43;2.78;;;13.40;99.90;;;;;;4949995;29;20043;-87
2022/08/09 03:40:59;;;;;;;7.45;3.20;;;13.20;99.90;;;;;;4933369;29;20035;-87
2022/08/09 03:43:26;;;;;;;8.32;3.40;;;13.30;99.90;;;;;;4918536;28;20069;-87
2022/08/09 03:45:52;;;;;;;9.43;3.58;;;13.30;99.90;;;;;;4917148;29;20046;-87
2022/08/09 03:48:21;;;;;;;9.13;3.50;;;13.30;99.90;;;;;;4916374;28;20036;-87
2022/08/09 03:50:49;;;;;;;8.80;3.40;;;13.30;99.90;;;;;;4948682;29;20068;-87
2022/08/09 03:53:17;;;;;;;10.18;3.22;;;13.30;99.90;;;;;;4934846;29;20050;-87
2022/08/09 03:55:43;;;;;;;11.52;3.78;;;13.30;99.90;;;;;;4918148;29;20117;-87
2022/08/09 03:58:09;;;;;;;8.13;3.33;;;13.30;99.90;;;;;;4917615;29;20146;-87
2022/08/09 04:00:36;;;;;;;8.88;3.78;;;13.30;99.90;;;;;;4918082;29;20113;-87
2022/08/09 04:03:02;;;;;;;8.82;3.58;;;13.30;99.90;;;;;;4931795;29;20086;-87
2022/08/09 04:05:28;;;;;;;10.25;4.20;;;13.30;99.90;;;;;;4933802;29;20074;-88
2022/08/09 04:07:54;;;;;;;9.55;4.00;;;13.20;99.90;;;;;;4932985;29;20435;-87
2022/08/09 04:10:21;;;;;;;10.07;3.85;;;13.20;99.90;;;;;;4949082;28;20035;-87
2022/08/09 04:12:52;;;;;;;10.05;4.35;;;13.20;99.90;;;;;;4964946;28;20485;-87
2022/08/09 04:15:20;;;;;;;9.30;3.90;;;13.20;99.90;;;;;;4917613;28;20039;-87
2022/08/09 04:17:46;;;;;;;9.60;4.30;;;13.20;99.90;;;;;;4951296;29;20441;-87
2022/08/09 04:20:12;;;;;;;9.27;4.00;;;13.20;99.90;;;;;;4937646;29;20043;-87
2022/08/09 04:22:39;;;;;;;9.52;4.28;;;13.30;99.90;;;;;;4919705;28;20069;-87
2022/08/09 04:25:06;;;;;;;8.70;3.85;;;13.30;99.90;;;;;;4938374;28;20075;-87
2022/08/09 04:27:32;;;;;;;9.75;4.05;;;13.30;99.90;;;;;;4944875;29;20290;-87
2022/08/09 04:29:58;;;;;;;9.55;3.65;;;13.30;99.90;;;;;;4955331;28;20043;-87
2022/08/09 04:32:26;;;;;;;9.10;3.25;;;13.30;99.90;;;;;;4931626;29;20038;-87
2022/08/09 04:34:52;;;;;;;9.02;3.60;;;13.30;99.90;;;;;;4933784;29;20101;-87
2022/08/09 04:37:18;;;;;;;9.32;3.60;;;13.40;99.90;;;;;;4933011;29;20047;-87
2022/08/09 04:39:43;;;;;;;8.38;3.08;;;13.40;99.90;;;;;;4933641;29;20044;-87
2022/08/09 04:42:09;;;;;;;7.75;2.92;;;13.40;99.90;;;;;;4917996;29;20043;-87
2022/08/09 04:44:35;;;;;;;7.95;2.88;;;13.40;99.90;;;;;;4914931;29;21568;-87
2022/08/09 04:47:01;;;;;;;7.55;2.78;;;13.50;99.90;;;;;;4930894;29;20039;-88
2022/08/09 04:49:32;;;;;;;7.93;3.10;;;13.50;99.90;;;;;;4916562;28;20130;-88
2022/08/09 04:51:58;;;;;;;7.55;2.70;;;13.60;99.90;;;;;;4949058;28;20035;-87
2022/08/09 04:54:24;;;;;;;6.72;2.47;;;13.60;99.90;;;;;;4929429;29;20145;-87
2022/08/09 04:56:49;;;;;;;6.53;2.58;;;13.70;99.90;;;;;;4913760;28;20039;-87
2022/08/09 04:59:15;;;;;;;7.07;2.65;;;13.70;99.90;;;;;;4933258;29;20073;-87
2022/08/09 05:01:41;;;;;;;7.15;2.88;;;13.80;99.90;;;;;;4915978;29;20408;-87
2022/08/09 05:04:06;;;;;;;6.22;2.45;;;13.90;99.90;;;;;;4914608;29;20043;-86
2022/08/09 05:06:32;;;;;;;7.15;2.80;;;13.90;99.90;;;;;;4929488;28;20074;-87
2022/08/09 05:08:58;;;;;;;6.38;2.72;;;14.00;99.90;;;;;;4930920;28;20043;-87
2022/08/09 05:11:26;;;;;;;6.82;2.83;;;14.10;99.90;;;;;;4949761;28;20046;-87
2022/08/09 05:13:52;;;;;;;6.78;2.72;;;14.10;99.90;;;;;;4919382;29;20085;-86
2022/08/09 05:16:18;;;;;;;8.13;3.17;;;14.20;99.90;;;;;;4947497;28;20325;-87
2022/08/09 05:18:43;;;;;;;7.40;3.30;;;14.10;99.90;;;;;;4926913;29;20040;-87
2022/08/09 05:21:09;;;;;;;8.30;3.38;;;14.40;99.90;;;;;;4963490;28;20035;-87
2022/08/09 05:23:35;;;;;;;8.85;3.03;;;14.40;99.90;;;;;;4934505;29;20139;-87
2022/08/09 05:26:00;;;;;;;7.25;3.28;;;14.50;99.90;;;;;;4957360;28;20046;-86
2022/08/09 05:28:26;;;;;;;8.75;3.40;;;14.60;99.90;;;;;;4949808;29;20504;-87
2022/08/09 05:30:52;;;;;;;8.02;3.20;;;14.70;99.90;;;;;;4917405;29;20055;-87
2022/08/09 05:33:18;;;;;;;10.02;4.03;;;14.80;99.90;;;;;;4932627;29;20134;-87
2022/08/09 05:35:44;;;;;;;7.78;3.50;;;14.90;99.90;;;;;;4927344;29;20130;-87
2022/08/09 05:38:10;;;;;;;8.77;3.95;;;15.00;99.90;;;;;;4929558;28;20170;-87
2022/08/09 05:40:36;;;;;;;10.07;4.18;;;15.20;99.90;;;;;;4916831;29;20733;-87
2022/08/09 05:43:01;;;;;;;9.23;4.30;;;15.30;99.90;;;;;;4947678;28;20504;-87
2022/08/09 05:45:28;;;;;;;8.63;4.13;;;15.40;99.90;;;;;;4932664;29;20036;-87
2022/08/09 05:47:55;;;;;;;9.23;3.78;;;15.50;99.90;;;;;;4931281;28;20145;-87
2022/08/09 05:50:27;;;;;;;10.02;3.95;;;15.40;99.90;;;;;;4931730;29;20046;-87
2022/08/09 05:52:53;;;;;;;8.43;3.95;;;15.70;99.90;;;;;;4933585;29;20046;-87
2022/08/09 05:55:19;;;;;;;10.13;4.40;;;15.80;99.90;;;;;;4927142;29;20031;-87
2022/08/09 05:57:45;;;;;;;9.52;4.50;;;16.00;99.90;;;;;;4948851;28;20047;-87
2022/08/09 06:00:14;;;;;;;9.55;4.40;;;16.10;99.90;;;;;;4916612;29;20584;-87
2022/08/09 06:02:40;;;;;;;9.35;4.13;;;16.20;99.90;;;;;;4915631;29;20042;-87
2022/08/09 06:05:09;;;;;;;9.13;4.43;;;16.40;99.90;;;;;;4912586;28;20294;-88
2022/08/09 06:07:34;;;;;;;10.32;4.20;;;16.50;99.90;;;;;;4930598;29;20057;-85
2022/08/09 06:10:01;;;;;;;9.52;4.47;;;16.60;99.90;;;;;;4915091;29;20039;-87
2022/08/09 06:12:27;;;;;;;8.50;4.10;;;16.70;99.90;;;;;;4946256;28;20074;-85
2022/08/09 06:14:53;;;;;;;9.90;4.22;;;16.80;99.90;;;;;;4928793;29;20075;-86
2022/08/09 06:17:18;;;;;;;8.52;3.88;;;16.90;99.90;;;;;;4931537;29;20063;-85
2022/08/09 06:19:44;;;;;;;9.52;4.10;;;17.00;99.90;;;;;;4931217;29;20039;-86
2022/08/09 06:22:10;;;;;;;10.20;3.95;;;17.10;99.90;;;;;;4930837;29;20151;-85
2022/08/09 06:24:35;;;;;;;9.70;3.92;;;17.20;99.90;;;;;;4931737;29;20028;-87
2022/08/09 06:27:01;;;;;;;8.50;3.83;;;17.30;99.90;;;;;;4916471;29;20043;-84
2022/08/09 06:29:27;;;;;;;8.63;3.90;;;17.40;99.90;;;;;;4928340;28;20534;-85
2022/08/09 06:31:52;;;;;;;8.75;3.90;;;17.50;99.90;;;;;;4931051;29;21119;-86
2022/08/09 06:34:19;;;;;;;11.10;3.97;;;17.60;99.90;;;;;;4931784;29;20069;-86
2022/08/09 06:36:45;;;;;;;9.90;4.13;;;17.60;99.90;;;;;;4915194;29;20504;-85
2022/08/09 06:39:11;;;;;;;9.60;4.03;;;17.70;99.90;;;;;;4915906;29;20046;-85
2022/08/09 06:41:38;;;;;;;9.52;3.78;;;17.80;99.90;;;;;;4960865;28;20039;-85
2022/08/09 06:44:04;;;;;;;9.18;4.05;;;17.90;99.90;;;;;;4932201;29;20043;-85
2022/08/09 06:46:30;;;;;;;8.93;4.00;;;18.00;99.90;;;;;;4945849;28;20622;-85
2022/08/09 06:48:55;;;;;;;9.98;3.90;;;18.10;99.90;;;;;;4920431;29;20043;-86
2022/08/09 06:51:21;;;;;;;8.48;3.90;;;18.30;99.90;;;;;;4920708;29;20378;-86
2022/08/09 06:53:47;;;;;;;8.20;3.60;;;18.30;99.90;;;;;;4920187;29;20421;-85
2022/08/09 06:56:13;;;;;;;8.93;3.70;;;18.50;99.90;;;;;;4934502;29;20043;-86
2022/08/09 06:58:39;;;;;;;9.55;3.40;;;18.50;99.90;;;;;;4934477;29;20456;-86
2022/08/09 07:01:05;;;;;;;10.05;4.00;;;18.70;99.90;;;;;;4933895;29;20164;-87
2022/08/09 07:03:33;;;;;;;8.95;3.58;;;18.80;99.90;;;;;;4967886;28;20035;-88
2022/08/09 07:06:01;;;;;;;8.38;3.28;;;18.90;99.90;;;;;;4934275;29;20397;-86
2022/08/09 07:08:27;;;;;;;9.27;3.35;;;19.00;99.90;;;;;;4949158;28;20411;-87
2022/08/09 07:10:53;;;;;;;7.88;2.70;;;19.20;99.90;;;;;;4952221;28;20035;-87
2022/08/09 07:13:19;;;;;;;7.57;2.58;;;19.20;99.90;;;;;;4920191;29;20535;-89
2022/08/09 07:15:45;;;;;;;7.85;2.72;;;19.30;99.90;;;;;;4918572;29;20078;-86
2022/08/09 07:18:11;;;;;;;8.95;2.80;;;19.40;99.90;;;;;;4933786;29;20182;-85
2022/08/09 07:20:36;;;;;;;7.78;2.30;;;19.40;99.90;;;;;;4951286;28;20054;-85
2022/08/09 07:23:02;;;;;;;9.05;2.28;;;19.50;99.90;;;;;;4951845;29;20065;-85
2022/08/09 07:25:28;;;;;;;7.07;2.00;;;19.60;99.90;;;;;;4935131;29;20043;-87
2022/08/09 07:27:54;;;;;;;5.82;1.90;;;19.70;99.90;;;;;;4933925;29;20027;-86
2022/08/09 07:30:20;;;;;;;6.00;2.10;;;19.80;99.90;;;;;;4949914;29;20055;-86
2022/08/09 07:32:45;;;;;;;4.65;1.65;;;19.80;99.90;;;;;;4919658;29;20055;-86
2022/08/09 07:35:12;;;;;;;4.72;1.73;;;19.90;99.90;;;;;;4934687;29;20043;-86
2022/08/09 07:37:42;;;;;;;5.15;1.60;;;19.90;99.90;;;;;;4949400;28;20047;-85
2022/08/09 07:40:09;;;;;;;6.70;1.95;;;20.10;99.90;;;;;;4950488;29;20047;-84
2022/08/09 07:42:57;;;;;;;5.32;1.60;;;20.20;99.90;;;;;;4949262;29;20449;-85
2022/08/09 07:45:24;;;;;;;5.47;1.50;;;20.40;99.90;;;;;;4948153;29;20043;-83
2022/08/09 07:47:56;;;;;;;4.00;1.40;;;20.50;99.90;;;;;;4931662;29;20055;-85
2022/08/09 07:50:24;;;;;;;7.53;1.80;;;20.50;99.90;;;;;;4951442;29;20210;-83
2022/08/09 07:52:50;;;;;;;5.60;1.50;;;20.50;99.90;;;;;;4953521;28;20067;-84
2022/08/09 07:55:17;;;;;;;4.32;1.40;;;20.50;99.90;;;;;;4937215;29;20061;-85
2022/08/09 07:57:46;;;;;;;3.85;1.40;;;20.60;99.90;;;;;;4936815;29;20047;-85
2022/08/09 08:00:12;;;;;;;5.82;1.40;;;20.70;99.90;;;;;;4916943;29;20117;-86
2022/08/09 08:02:38;;;;;;;5.28;1.30;;;20.70;99.90;;;;;;4918745;29;20132;-85
2022/08/09 08:05:04;;;;;;;3.80;1.20;;;21.00;99.90;;;;;;4919174;29;20066;-86
2022/08/09 08:07:29;;;;;;;2.95;1.00;;;20.80;99.90;;;;;;4947828;29;20518;-86
2022/08/09 08:09:56;;;;;;;2.45;1.10;;;20.80;99.90;;;;;;4916760;29;20078;-85
2022/08/09 08:12:22;;;;;;;2.85;1.20;;;20.80;99.90;;;;;;4932564;29;20047;-86
2022/08/09 08:14:48;;;;;;;1.92;1.00;;;20.90;99.90;;;;;;4936806;29;20051;-85
2022/08/09 08:17:13;;;;;;;3.20;1.40;;;21.00;99.90;;;;;;4951445;28;20039;-86
2022/08/09 08:19:39;;;;;;;2.58;1.20;;;21.10;99.90;;;;;;4918033;29;20050;-84
2022/08/09 08:22:05;;;;;;;1.60;0.90;;;21.20;99.90;;;;;;4930702;29;20043;-85
2022/08/09 08:24:30;;;;;;;1.67;1.00;;;21.10;99.90;;;;;;4919235;29;20043;-85
2022/08/09 08:26:56;;;;;;;1.25;0.65;;;21.20;99.90;;;;;;4919225;29;20058;-86
2022/08/09 08:29:25;;;;;;;1.25;0.80;;;21.20;99.90;;;;;;4932594;28;20043;-85
2022/08/09 08:31:51;;;;;;;3.35;1.02;;;21.20;99.90;;;;;;4932558;29;20126;-87
2022/08/09 08:34:16;;;;;;;1.52;0.90;;;21.20;99.90;;;;;;4918398;29;20631;-87
2022/08/09 08:36:42;;;;;;;3.17;0.77;;;21.30;99.90;;;;;;4918496;29;20043;-87
2022/08/09 08:39:10;;;;;;;3.72;1.10;;;21.40;99.90;;;;;;4950334;28;20078;-86
2022/08/09 08:41:37;;;;;;;2.05;0.90;;;21.40;99.90;;;;;;4918741;29;20091;-87
2022/08/09 08:44:03;;;;;;;2.80;1.10;;;21.50;99.90;;;;;;4932270;29;20050;-85
2022/08/09 08:46:38;;;;;;;1.50;0.90;;;21.50;99.90;;;;;;4949871;28;20074;-87
2022/08/09 08:49:06;;;;;;;2.90;1.10;;;21.60;99.90;;;;;;4949248;28;20623;-86
2022/08/09 08:51:32;;;;;;;1.35;0.95;;;21.60;99.90;;;;;;4948543;29;20043;-85
2022/08/09 08:53:58;;;;;;;2.65;1.00;;;21.50;99.90;;;;;;4948214;28;20193;-88
2022/08/09 08:56:24;;;;;;;2.17;0.82;;;21.50;99.90;;;;;;4934452;29;20457;-86
2022/08/09 08:58:51;;;;;;;1.88;0.85;;;21.50;99.90;;;;;;4917649;29;20122;-87
2022/08/09 09:01:17;;;;;;;2.85;1.05;;;21.50;99.90;;;;;;4947441;28;20035;-87
2022/08/09 09:03:43;;;;;;;2.58;1.20;;;21.50;99.90;;;;;;4948294;28;20043;-86
2022/08/09 09:06:11;;;;;;;0.88;0.70;;;21.60;99.90;;;;;;4949072;28;20142;-85
2022/08/09 09:08:39;;;;;;;2.65;1.00;;;21.60;99.90;;;;;;4928837;28;20032;-87
2022/08/09 09:11:06;;;;;;;3.05;1.48;;;21.60;99.90;;;;;;4953748;29;20070;-86
2022/08/09 09:13:39;;;;;;;2.47;1.00;;;21.60;99.90;;;;;;4947357;28;20043;-87
2022/08/09 09:16:06;;;;;;;2.95;0.95;;;21.70;99.90;;;;;;4930799;28;20049;-85
2022/08/09 09:18:32;;;;;;;3.80;1.00;;;21.70;99.90;;;;;;4918244;28;20052;-86
2022/08/09 09:20:58;;;;;;;2.05;1.08;;;21.70;99.90;;;;;;4933673;29;20046;-85
2022/08/09 09:23:41;;;;;;;2.88;1.05;;;21.70;99.90;;;;;;4949309;28;20038;-85
2022/08/09 09:26:08;;;;;;;2.78;1.10;;;21.80;99.90;;;;;;4948721;29;20131;-85
2022/08/09 09:28:34;;;;;;;2.25;0.95;;;21.90;99.90;;;;;;4933769;29;20039;-84
2022/08/09 09:31:00;;;;;;;3.85;1.20;;;22.00;99.90;;;;;;4918332;29;20409;-84
2022/08/09 09:33:35;;;;;;;2.65;0.90;;;22.00;99.90;;;;;;4915594;28;20193;-85
2022/08/09 09:36:06;;;;;;;3.53;0.98;;;22.10;99.90;;;;;;4928763;29;20489;-84
2022/08/09 09:38:40;;;;;;;2.15;1.10;;;22.10;99.90;;;;;;4916759;29;20085;-85
2022/08/09 09:41:07;;;;;;;3.33;1.30;;;22.30;99.90;;;;;;4932640;29;20043;-87
2022/08/09 09:43:33;;;;;;;2.08;0.85;;;22.30;99.90;;;;;;4949250;29;20038;-85
2022/08/09 09:46:01;;;;;;;4.00;0.95;;;22.40;99.90;;;;;;4913172;29;20448;-85
2022/08/09 09:48:28;;;;;;;2.35;1.10;;;22.50;99.90;;;;;;4964706;28;20062;-87
2022/08/09 09:50:54;;;;;;;1.85;0.88;;;22.60;99.90;;;;;;4933656;29;20406;-87
2022/08/09 09:53:23;;;;;;;1.60;0.90;;;22.70;99.90;;;;;;4933819;29;20283;-84
2022/08/09 09:56:00;;;;;;;1.25;0.93;;;22.80;99.90;;;;;;4946680;29;20053;-86
2022/08/09 09:58:46;;;;;;;1.60;0.90;;;22.90;99.90;;;;;;4944138;28;20485;-86
2022/08/09 10:01:20;;;;;;;1.90;1.10;;;22.90;99.90;;;;;;4949258;29;20037;-87
2022/08/09 10:03:51;;;;;;;1.63;1.00;;;22.90;99.90;;;;;;4933842;29;20034;-87
2022/08/09 10:06:17;;;;;;;3.15;1.10;;;23.00;99.90;;;;;;4930477;28;20118;-86
2022/08/09 10:08:46;;;;;;;3.83;1.10;;;23.20;99.90;;;;;;4948169;29;20055;-86
2022/08/09 10:11:29;;;;;;;1.67;0.98;;;23.10;99.90;;;;;;4931239;29;20516;-85
2022/08/09 10:13:56;;;;;;;1.25;0.90;;;23.10;99.90;;;;;;4947139;29;20067;-89
2022/08/09 10:16:29;;;;;;;3.20;1.10;;;23.20;99.90;;;;;;4915629;28;20515;-87
2022/08/09 10:19:00;;;;;;;1.88;1.00;;;23.30;99.90;;;;;;4948036;29;20121;-87
2022/08/09 10:21:26;;;;;;;1.13;0.77;;;23.10;99.90;;;;;;4932777;29;20058;-86
2022/08/09 10:23:53;;;;;;;1.67;0.85;;;23.20;99.90;;;;;;4932596;29;20552;-87
2022/08/09 10:26:20;;;;;;;4.13;1.30;;;23.10;99.90;;;;;;4946607;29;20508;-87
2022/08/09 10:28:47;;;;;;;3.45;1.20;;;23.00;99.90;;;;;;4930815;29;20047;-87
2022/08/09 10:31:14;;;;;;;1.77;1.00;;;23.10;99.90;;;;;;4932596;29;20178;-87
2022/08/09 10:33:41;;;;;;;2.35;0.95;;;23.10;99.90;;;;;;4930621;29;20141;-87
2022/08/09 10:36:09;;;;;;;2.15;0.93;;;23.10;99.90;;;;;;4947686;29;20489;-86
2022/08/09 10:38:36;;;;;;;3.05;1.20;;;23.20;99.90;;;;;;4928288;29;20121;-87
2022/08/09 10:41:03;;;;;;;2.40;1.10;;;23.30;99.90;;;;;;4960476;28;20032;-87
2022/08/09 10:43:29;;;;;;;2.30;1.00;;;;;;;;;;4932402;29;20039;-86
2022/08/09 10:46:00;;;;;;;4.05;1.23;;;23.50;99.90;;;;;;4917086;29;20050;-86
2022/08/09 10:48:35;;;;;;;3.42;1.20;;;23.50;99.90;;;;;;4931672;28;20043;-86
2022/08/09 10:51:26;;;;;;;3.13;1.10;;;23.30;99.90;;;;;;4963532;28;20058;-86
2022/08/09 10:54:05;;;;;;;3.42;1.20;;;23.40;99.90;;;;;;4946798;28;20090;-88
2022/08/09 10:56:32;;;;;;;2.50;1.00;;;23.40;99.90;;;;;;4930361;29;20556;-85
2022/08/09 10:59:00;;;;;;;2.40;1.10;;;23.40;99.90;;;;;;4913902;29;20397;-86
2022/08/09 11:01:32;;;;;;;3.33;1.38;;;23.50;99.90;;;;;;4931750;29;20110;-85
2022/08/09 11:04:17;;;;;;;3.70;1.58;;;23.70;99.90;;;;;;4931017;29;20400;-87
2022/08/09 11:06:44;;;;;;;3.65;1.40;;;23.50;99.90;;;;;;4929855;29;20047;-84
2022/08/09 11:09:14;;;;;;;3.88;1.20;;;23.30;99.90;;;;;;4946230;28;20085;-86
2022/08/09 11:11:59;;;;;;;3.08;1.02;;;23.20;99.90;;;;;;4928463;29;20059;-86
2022/08/09 11:14:34;;;;;;;1.95;1.10;;;23.10;99.90;;;;;;4947155;28;20047;-86
2022/08/09 11:17:01;;;;;;;4.53;1.27;;;23.00;99.90;;;;;;4948458;29;20536;-86
2022/08/09 11:19:52;;;;;;;3.22;1.20;;;23.20;99.90;;;;;;4946940;28;20043;-85
2022/08/09 11:22:18;;;;;;;2.50;1.20;;;23.50;99.90;;;;;;4942123;29;20036;-86
2022/08/09 11:24:57;;;;;;;2.90;1.15;;;23.50;99.90;;;;;;4929076;29;20121;-86
2022/08/09 11:27:40;;;;;;;2.58;1.20;;;23.80;99.90;;;;;;4931658;29;20047;-86
2022/08/09 11:30:13;;;;;;;1.60;0.90;;;23.70;99.90;;;;;;4961846;28;20055;-87
2022/08/09 11:32:38;;;;;;;;;;;23.90;99.90;;;;;;4944672;28;20077;-86
2022/08/09 11:35:35;;;;;;;1.77;1.10;;;23.70;99.90;;;;;;4951844;29;20047;-86
2022/08/09 11:38:20;;;;;;;2.17;1.10;;;23.60;99.90;;;;;;4934438;29;20094;-87
2022/08/09 11:40:47;;;;;;;2.40;1.10;;;23.40;99.90;;;;;;4950154;28;20039;-86
2022/08/09 11:43:37;;;;;;;2.70;1.30;;;23.40;99.90;;;;;;4949708;28;20038;-86
2022/08/09 11:46:04;;;;;;;2.35;1.30;;;23.60;99.90;;;;;;4927887;28;20097;-88
2022/08/09 11:48:32;;;;;;;3.22;1.15;;;23.70;99.90;;;;;;4933165;29;20043;-86
2022/08/09 11:51:01;;;;;;;1.65;1.05;;;23.80;99.90;;;;;;4933516;28;20110;-86
2022/08/09 11:53:32;;;;;;;1.25;0.90;;;23.80;99.90;;;;;;4932622;29;20476;-86
2022/08/09 11:56:13;;;;;;;2.75;1.30;;;23.70;99.90;;;;;;4933894;29;20283;-88
2022/08/09 11:58:47;;;;;;;1.48;0.82;;;23.60;99.90;;;;;;4951254;29;20078;-86
2022/08/09 12:01:15;;;;;;;2.03;0.93;;;23.70;99.90;;;;;;4935304;29;20039;-87
2022/08/09 12:03:44;;;;;;;1.75;1.02;;;23.80;99.90;;;;;;4948253;28;20152;-88
2022/08/09 12:06:18;;;;;;;1.85;0.98;;;23.80;99.90;;;;;;4950773;28;20505;-85
2022/08/09 12:08:55;;;;;;;2.60;1.25;;;24.00;99.90;;;;;;4967610;28;20407;-86
2022/08/09 12:11:24;;;;;;;4.03;1.20;;;24.00;99.90;;;;;;4934693;29;20047;-86
2022/08/09 12:13:59;;;;;;;2.50;1.15;;;23.80;99.90;;;;;;4931856;29;20077;-85
2022/08/09 12:16:43;;;;;;;1.73;0.93;;;23.90;99.90;;;;;;4935670;29;20058;-86
2022/08/09 12:19:10;;;;;;;3.45;1.15;;;23.90;99.90;;;;;;4950231;28;20031;-85
2022/08/09 12:21:41;;;;;;;2.22;0.90;;;23.90;99.90;;;;;;4933447;29;20039;-87
2022/08/09 12:24:09;;;;;;;2.58;1.10;;;24.00;99.90;;;;;;4949344;28;20047;-86
2022/08/09 12:26:55;;;;;;;2.42;1.08;;;24.10;99.90;;;;;;4950301;29;20038;-86
2022/08/09 12:29:24;;;;;;;3.08;1.00;;;24.20;99.90;;;;;;4950434;29;20039;-86
2022/08/09 12:32:07;;;;;;;3.97;1.30;;;24.30;99.90;;;;;;4932872;29;20373;-85
2022/08/09 12:34:42;;;;;;;2.15;1.20;;;24.30;99.90;;;;;;4916069;28;20491;-86
2022/08/09 12:37:10;;;;;;;1.73;1.10;;;24.30;99.90;;;;;;4933871;29;20098;-85
2022/08/09 12:39:36;;;;;;;2.53;1.23;;;24.20;99.90;;;;;;4934624;29;20544;-86
2022/08/09 12:42:10;;;;;;;2.10;1.20;;;24.40;99.90;;;;;;4917283;29;20109;-86
2022/08/09 12:44:37;;;;;;;5.32;1.40;;;24.20;99.90;;;;;;4946990;28;20039;-86
2022/08/09 12:47:04;;;;;;;2.15;1.10;;;24.10;99.90;;;;;;4932710;29;20043;-85
2022/08/09 12:49:35;;;;;;;3.63;1.33;;;24.10;99.90;;;;;;4934638;29;20122;-85
2022/08/09 12:52:01;;;;;;;1.98;1.08;;;24.20;99.90;;;;;;4949386;28;20125;-86
2022/08/09 12:54:27;;;;;;;2.95;1.10;;;24.00;99.90;;;;;;4916950;28;20126;-86
2022/08/09 12:56:53;;;;;;;1.55;1.13;;;24.10;99.90;;;;;;4916182;29;20035;-86
2022/08/09 12:59:23;;;;;;;1.23;1.00;;;24.20;99.90;;;;;;4917052;29;20040;-85